Time;durP1;ratioP1;P1;durP2;ratioP2;P2;SDS_P1;SDS_P2;PMS_P1;PMS_P2;Temp;Humidity;BMP_temperature;BMP_pressure;BME280_temperature;BME280_humidity;BME280_pressure;Samples;Min_cycle;Max_cycle;Signal;HPM_P1;HPM_P2
2022/06/18 00:00:17;;;;;;;4.87;3.10;;;;;;;20.32;100.00;101583.53;2056459;28;20179;-68
2022/06/18 00:01:18;;;;;;;6.57;3.00;;;;;;;20.33;100.00;101573.06;2055729;28;20537;-68
2022/06/18 00:02:20;;;;;;;6.50;3.10;;;;;;;20.30;100.00;101579.66;2056287;28;20425;-68
2022/06/18 00:03:22;;;;;;;6.10;3.00;;;;;;;20.31;100.00;101578.41;2055836;28;20203;-68
2022/06/18 00:04:24;;;;;;;5.23;3.63;;;;;;;20.29;100.00;101586.53;2055729;28;20503;-68
2022/06/18 00:05:25;;;;;;;4.80;3.40;;;;;;;20.31;100.00;101581.22;2063725;28;20432;-68
2022/06/18 00:06:26;;;;;;;7.00;3.83;;;;;;;20.26;100.00;101581.88;2063684;28;21018;-68
2022/06/18 00:07:27;;;;;;;5.30;3.20;;;;;;;19.92;100.00;101531.66;2056064;28;20414;-68
2022/06/18 00:08:30;;;;;;;6.13;3.80;;;;;;;20.31;100.00;101587.63;2056368;28;20510;-68
2022/06/18 00:09:42;;;;;;;6.20;3.67;;;;;;;20.29;100.00;101590.16;2060909;28;20197;-68
2022/06/18 00:10:43;;;;;;;6.90;3.67;;;;;;;20.30;100.00;101577.63;2066124;28;20784;-68
2022/06/18 00:13:39;;;;;;;8.87;3.70;;;;;;;20.27;100.00;101580.63;2065692;28;20239;-68
2022/06/18 00:14:40;;;;;;;5.97;3.70;;;;;;;20.26;100.00;101581.88;2063007;28;20448;-68
2022/06/18 00:15:41;;;;;;;8.60;3.70;;;;;;;20.24;100.00;101581.56;2065867;28;20448;-68
2022/06/18 00:16:41;;;;;;;8.07;3.77;;;;;;;20.23;100.00;101580.00;2065270;28;20186;-68
2022/06/18 00:17:43;;;;;;;6.30;3.87;;;;;;;20.20;100.00;101578.13;2065944;28;20664;-67
2022/06/18 00:18:43;;;;;;;6.10;3.90;;;;;;;20.15;100.00;101587.22;2066063;28;20189;-68
2022/06/18 00:19:45;;;;;;;6.70;3.67;;;;;;;20.12;100.00;101588.94;2065228;28;20421;-68
2022/06/18 00:20:46;;;;;;;9.47;3.93;;;;;;;20.12;100.00;101585.38;2065537;28;20186;-68
2022/06/18 00:21:47;;;;;;;5.47;3.43;;;;;;;20.13;100.00;101587.72;2065095;28;20441;-68
2022/06/18 00:22:51;;;;;;;5.37;3.70;;;;;;;19.82;100.00;101528.09;2065403;28;20225;-68
2022/06/18 00:23:52;;;;;;;5.67;3.40;;;;;;;19.53;100.00;101482.09;2065966;28;20490;-68
2022/06/18 00:24:52;;;;;;;6.53;4.03;;;;;;;20.25;100.00;101585.94;2065436;28;20429;-68
2022/06/18 00:25:53;;;;;;;6.27;3.80;;;;;;;20.25;100.00;101580.31;2065841;28;20179;-68
2022/06/18 00:26:53;;;;;;;7.93;3.63;;;;;;;20.25;100.00;101583.13;2065420;28;20300;-68
2022/06/18 00:27:55;;;;;;;8.83;3.47;;;;;;;20.27;100.00;101577.81;2065956;28;20660;-68
2022/06/18 00:28:55;;;;;;;8.43;3.90;;;;;;;20.33;100.00;101581.53;2065938;28;20182;-68
2022/06/18 00:29:56;;;;;;;6.93;3.80;;;;;;;20.32;100.00;101583.53;2065849;28;20424;-68
2022/06/18 00:30:56;;;;;;;7.00;3.57;;;;;;;20.33;100.00;101582.31;2065486;28;20182;-68
2022/06/18 00:31:57;;;;;;;5.07;3.33;;;;;;;20.36;100.00;101584.16;2065690;28;20229;-68
2022/06/18 00:32:58;;;;;;;6.53;3.70;;;;;;;20.38;100.00;101584.47;2065316;28;20317;-68
2022/06/18 00:33:58;;;;;;;6.17;3.53;;;;;;;20.04;100.00;101528.63;2065435;28;20217;-68
2022/06/18 00:34:58;;;;;;;6.47;3.47;;;;;;;20.46;100.00;101579.28;2065833;28;20222;-68
2022/06/18 00:36:02;;;;;;;8.20;3.33;;;;;;;20.49;100.00;101612.09;2065797;28;20259;-68
2022/06/18 00:37:04;;;;;;;5.67;3.40;;;;;;;20.49;100.00;101581.13;2065464;28;20265;-68
2022/06/18 00:38:11;;;;;;;5.57;2.97;;;;;;;20.47;100.00;101580.84;2065887;28;20914;-68
2022/06/18 00:39:14;;;;;;;4.70;2.97;;;;;;;20.43;100.00;101583.84;2065882;28;20410;-68
2022/06/18 00:40:21;;;;;;;4.40;3.07;;;;;;;20.05;100.00;101523.78;2065761;28;20424;-68
2022/06/18 00:41:24;;;;;;;4.77;2.70;;;;;;;20.33;100.00;101578.72;2065207;28;20859;-68
2022/06/18 00:42:29;;;;;;;7.43;2.73;;;;;;;20.29;100.00;101581.69;2065876;28;20516;-68
2022/06/18 00:43:39;;;;;;;5.43;2.73;;;;;;;20.24;100.00;101584.38;2065522;28;20432;-68
2022/06/18 00:44:42;;;;;;;5.97;3.37;;;;;;;19.41;100.00;101460.56;2065415;28;20417;-68
2022/06/18 00:45:43;;;;;;;7.23;2.80;;;;;;;20.17;100.00;101588.31;2065594;28;20486;-68
2022/06/18 00:46:56;;;;;;;5.10;2.70;;;;;;;20.12;100.00;101580.50;2065209;28;20417;-68
2022/06/18 00:48:08;;;;;;;5.00;2.93;;;;;;;20.06;100.00;101565.50;2065807;28;20190;-68
2022/06/18 00:49:39;;;;;;;4.93;2.93;;;;;;;19.94;100.00;101579.75;2065684;28;20402;-68
2022/06/18 00:50:42;;;;;;;9.70;4.13;;;;;;;19.85;100.00;101579.81;2065507;28;20443;-68
2022/06/18 00:51:48;;;;;;;8.07;3.77;;;;;;;19.81;100.00;101585.59;2064894;28;20434;-68
2022/06/18 00:53:01;;;;;;;9.53;3.70;;;;;;;19.71;100.00;101581.22;2065115;28;20456;-68
2022/06/18 00:54:12;;;;;;;9.10;3.97;;;;;;;19.61;100.00;101567.69;2065269;28;20401;-68
2022/06/18 00:55:47;;;;;;;10.13;4.10;;;;;;;19.58;100.00;101579.84;2065829;28;20475;-68
2022/06/18 00:56:56;;;;;;;9.83;3.67;;;;;;;19.52;100.00;101581.75;2065249;28;20543;-68
2022/06/18 00:58:08;;;;;;;7.73;4.00;;;;;;;19.48;100.00;101578.31;2065632;28;20417;-68
2022/06/18 00:59:36;;;;;;;7.00;3.60;;;;;;;19.38;100.00;101583.16;2065744;28;20507;-68
2022/06/18 01:00:41;;;;;;;8.00;3.57;;;;;;;19.41;100.00;101584.25;2065824;28;20409;-68
2022/06/18 01:01:46;;;;;;;10.47;3.97;;;;;;;19.35;100.00;101575.66;2064718;28;20421;-68
2022/06/18 01:02:49;;;;;;;7.13;3.67;;;;;;;19.11;100.00;101548.66;2065326;28;20405;-68
2022/06/18 01:03:50;;;;;;;9.67;3.53;;;;;;;18.47;100.00;101443.19;2065637;28;20424;-68
2022/06/18 01:04:52;;;;;;;6.23;3.73;;;;;;;19.29;100.00;101576.78;2065161;28;20439;-68
2022/06/18 01:05:55;;;;;;;6.93;3.57;;;;;;;19.31;100.00;101579.91;2065603;28;20444;-68
2022/06/18 01:07:25;;;;;;;8.93;3.73;;;;;;;19.30;100.00;101581.16;2064924;28;20461;-68
2022/06/18 01:08:29;;;;;;;10.00;3.57;;;;;;;19.30;100.00;101584.72;2058216;28;20615;-68
2022/06/18 01:09:31;;;;;;;6.17;3.40;;;;;;;18.55;100.00;101475.31;2065621;28;20425;-68
2022/06/18 01:10:41;;;;;;;9.43;3.30;;;;;;;19.31;100.00;101577.88;2065533;28;20429;-68
2022/06/18 01:11:43;;;;;;;10.70;3.93;;;;;;;18.92;100.00;101536.63;2064909;28;20416;-68
2022/06/18 01:12:44;;;;;;;8.90;3.27;;;;;;;19.27;100.00;101576.47;2064980;28;20475;-68
2022/06/18 01:13:45;;;;;;;6.07;3.60;;;;;;;18.79;100.00;101507.91;2065324;28;20467;-68
2022/06/18 01:14:51;;;;;;;7.80;3.60;;;;;;;19.31;100.00;101585.50;2065157;28;20186;-68
2022/06/18 01:15:54;;;;;;;5.97;3.30;;;;;;;19.33;100.00;101583.00;2065502;28;20269;-68
2022/06/18 01:16:58;;;;;;;9.70;3.47;;;;;;;19.31;100.00;101577.09;2065060;28;20456;-68
2022/06/18 01:18:01;;;;;;;6.57;3.30;;;;;;;19.31;100.00;101586.31;2065496;28;20422;-68
2022/06/18 01:19:04;;;;;;;6.90;3.20;;;;;;;19.34;100.00;101579.72;2065488;28;20416;-68
2022/06/18 01:20:09;;;;;;;7.50;3.50;;;;;;;19.35;100.00;101581.28;2065264;28;20936;-68
2022/06/18 01:21:22;;;;;;;6.60;3.57;;;;;;;19.36;100.00;101584.88;2064606;28;20521;-68
2022/06/18 01:22:51;;;;;;;9.00;3.13;;;;;;;19.39;100.00;101583.97;2065322;28;20416;-68
2022/06/18 01:24:10;;;;;;;5.43;3.07;;;;;;;19.38;100.00;101580.34;2065439;28;20484;-68
2022/06/18 01:25:11;;;;;;;6.73;3.00;;;;;;;19.23;100.00;101556.16;2065531;28;20413;-68
2022/06/18 01:26:12;;;;;;;5.60;3.30;;;;;;;19.41;100.00;101578.63;2065343;28;20421;-68
2022/06/18 01:27:12;;;;;;;7.07;3.50;;;;;;;19.38;100.00;101582.38;2064878;28;20196;-68
2022/06/18 01:28:16;;;;;;;9.10;3.83;;;;;;;18.32;100.00;101408.53;2065393;28;20453;-68
2022/06/18 01:29:18;;;;;;;10.57;4.10;;;;;;;18.64;100.00;101455.66;2065315;28;20180;-68
2022/06/18 01:30:23;;;;;;;13.77;4.87;;;;;;;19.49;100.00;101586.28;2065333;28;20513;-68
2022/06/18 01:31:25;;;;;;;9.17;4.10;;;;;;;19.48;100.00;101581.13;2064650;28;20814;-68
2022/06/18 01:32:26;;;;;;;9.30;4.03;;;;;;;19.43;100.00;101573.31;2065424;28;20812;-68
2022/06/18 01:33:27;;;;;;;8.77;3.87;;;;;;;19.03;100.00;101524.94;2065110;28;20439;-68
2022/06/18 01:34:28;;;;;;;7.13;3.63;;;;;;;19.49;100.00;101583.47;2064797;28;20237;-68
2022/06/18 01:35:30;;;;;;;7.70;3.70;;;;;;;18.71;100.00;101460.94;2065360;28;20662;-68
2022/06/18 01:36:34;;;;;;;8.30;3.30;;;;;;;19.47;100.00;101574.72;2064908;28;20429;-68
2022/06/18 01:37:35;;;;;;;6.53;3.80;;;;;;;19.44;100.00;101578.47;2065387;28;20423;-68
2022/06/18 01:38:40;;;;;;;6.73;3.33;;;;;;;19.42;100.00;101580.97;2065463;28;20420;-68
2022/06/18 01:39:43;;;;;;;8.43;3.17;;;;;;;19.44;100.00;101584.09;2065320;28;20179;-68
2022/06/18 01:42:31;;;;;;;4.80;3.17;;;;;;;18.87;100.00;101499.94;2065544;28;20851;-68
2022/06/18 01:43:32;;;;;;;4.53;3.30;;;;;;;19.37;100.00;101580.81;2064449;28;20924;-68
2022/06/18 01:44:45;;;;;;;6.73;3.17;;;;;;;19.37;100.00;101578.81;2064132;28;20437;-68
2022/06/18 01:45:51;;;;;;;5.53;3.57;;;;;;;19.36;100.00;101580.06;2064792;28;20190;-68
2022/06/18 01:46:55;;;;;;;7.63;3.23;;;;;;;19.36;100.00;101577.25;2064791;28;20421;-68
2022/06/18 01:48:27;;;;;;;4.83;2.93;;;;;;;19.31;100.00;101575.06;2064605;28;20537;-68
2022/06/18 01:49:34;;;;;;;5.70;3.40;;;;;;;19.32;100.00;101589.88;2064759;28;20419;-68
2022/06/18 01:50:45;;;;;;;4.47;3.10;;;;;;;19.30;100.00;101583.97;2065443;28;20548;-68
2022/06/18 01:51:48;;;;;;;5.87;3.77;;;;;;;19.30;100.00;101590.34;2064513;28;20921;-68
2022/06/18 01:52:53;;;;;;;5.43;3.20;;;;;;;19.28;100.00;101586.44;2064880;28;20564;-68
2022/06/18 01:54:00;;;;;;;5.27;3.27;;;;;;;19.14;100.00;101573.78;2065250;28;20431;-68
2022/06/18 01:55:06;;;;;;;5.47;3.30;;;;;;;19.21;100.00;101583.94;2065262;28;20413;-68
2022/06/18 01:56:12;;;;;;;7.00;3.50;;;;;;;19.24;100.00;101591.47;2065190;28;20410;-68
2022/06/18 01:57:19;;;;;;;5.33;3.20;;;;;;;19.23;100.00;101595.50;2064658;28;20415;-68
2022/06/18 01:58:25;;;;;;;7.40;3.33;;;;;;;19.21;100.00;101601.59;2065205;28;20419;-68
2022/06/18 01:59:31;;;;;;;6.57;3.17;;;;;;;19.18;100.00;101587.69;2065287;28;20922;-68
2022/06/18 02:00:32;;;;;;;7.47;3.00;;;;;;;19.20;100.00;101594.41;2065334;28;20792;-68
2022/06/18 02:01:35;;;;;;;4.40;3.10;;;;;;;19.23;100.00;101593.47;2063711;28;20421;-68
2022/06/18 02:02:36;;;;;;;7.90;3.50;;;;;;;19.17;100.00;101584.09;2064152;28;20180;-68
2022/06/18 02:03:37;;;;;;;6.27;3.57;;;;;;;19.24;100.00;101597.09;2065050;28;20422;-68
2022/06/18 02:04:37;;;;;;;5.63;3.40;;;;;;;18.93;100.00;101563.47;2064792;28;20179;-68
2022/06/18 02:05:38;;;;;;;6.83;3.50;;;;;;;18.56;100.00;101490.88;2064407;28;20189;-68
2022/06/18 02:06:39;;;;;;;7.07;3.00;;;;;;;18.50;100.00;101478.72;2063997;28;20645;-68
2022/06/18 02:07:43;;;;;;;7.97;3.53;;;;;;;19.28;100.00;101598.47;2065114;28;20663;-68
2022/06/18 02:08:44;;;;;;;7.73;3.13;;;;;;;19.32;100.00;101595.50;2065254;28;20427;-68
2022/06/18 02:09:48;;;;;;;9.90;4.20;;;;;;;19.31;100.00;101596.75;2064971;28;21064;-68
2022/06/18 02:10:58;;;;;;;7.27;3.63;;;;;;;19.28;100.00;101598.47;2065050;28;20216;-68
2022/06/18 02:12:02;;;;;;;6.00;3.07;;;;;;;19.24;100.00;101599.88;2064713;28;20522;-68
2022/06/18 02:13:04;;;;;;;5.23;3.17;;;;;;;18.78;100.00;101548.47;2064798;28;20824;-68
2022/06/18 02:14:10;;;;;;;6.73;3.17;;;;;;;18.78;100.00;101551.28;2064395;28;20412;-68
2022/06/18 02:15:16;;;;;;;5.83;3.37;;;;;;;19.09;100.00;101610.91;2065118;28;20446;-68
2022/06/18 02:16:24;;;;;;;9.07;4.20;;;;;;;19.07;100.00;101607.81;2065222;28;20422;-68
2022/06/18 02:17:27;;;;;;;7.33;3.73;;;;;;;19.07;100.00;101607.81;2064639;28;20402;-68
2022/06/18 02:18:29;;;;;;;9.90;3.43;;;;;;;19.06;100.00;101606.25;2064321;28;20453;-68
2022/06/18 02:19:30;;;;;;;6.77;3.40;;;;;;;19.09;100.00;101610.16;2064231;28;20432;-67
2022/06/18 02:20:39;;;;;;;9.03;3.67;;;;;;;19.11;100.00;101607.66;2065080;28;20434;-67
2022/06/18 02:21:45;;;;;;;8.20;3.60;;;;;;;19.14;100.00;101620.78;2064283;28;20503;-68
2022/06/18 02:22:50;;;;;;;6.70;3.57;;;;;;;18.94;100.00;101592.34;2064656;28;20406;-68
2022/06/18 02:23:53;;;;;;;5.87;3.30;;;;;;;19.17;100.00;101606.56;2064901;28;20985;-68
2022/06/18 02:24:53;;;;;;;5.80;3.30;;;;;;;19.16;100.00;101610.63;2064491;28;20417;-68
2022/06/18 02:25:54;;;;;;;10.10;3.63;;;;;;;18.07;100.00;101429.19;2064943;28;20436;-68
2022/06/18 02:26:55;;;;;;;5.50;3.23;;;;;;;19.13;100.00;101607.97;2064422;28;20186;-68
2022/06/18 02:28:00;;;;;;;7.63;3.33;;;;;;;19.12;100.00;101610.00;2064336;28;20189;-68
2022/06/18 02:29:01;;;;;;;7.60;3.40;;;;;;;19.08;100.00;101620.59;2064686;28;20419;-68
2022/06/18 02:30:02;;;;;;;7.27;3.80;;;;;;;19.02;100.00;101610.44;2064815;28;20855;-68
2022/06/18 02:31:04;;;;;;;9.40;4.27;;;;;;;18.89;100.00;101613.38;2064356;28;20425;-68
2022/06/18 02:32:11;;;;;;;5.47;3.33;;;;;;;18.81;100.00;101617.75;2064230;28;20181;-68
2022/06/18 02:33:31;;;;;;;5.17;3.50;;;;;;;18.83;100.00;101625.72;2064384;28;20448;-68
2022/06/18 02:34:31;;;;;;;5.20;3.60;;;;;;;18.79;100.00;101609.00;2063711;28;20441;-68
2022/06/18 02:35:32;;;;;;;5.13;3.60;;;;;;;18.90;100.00;101622.59;2064422;28;20414;-68
2022/06/18 02:36:36;;;;;;;6.03;3.63;;;;;;;18.97;100.00;101619.50;2064405;28;20255;-68
2022/06/18 02:37:37;;;;;;;7.47;4.20;;;;;;;19.04;100.00;101622.78;2064856;28;20181;-68
2022/06/18 02:38:37;;;;;;;8.20;3.60;;;;;;;19.07;100.00;101621.84;2064968;28;20513;-68
2022/06/18 02:39:51;;;;;;;9.10;4.00;;;;;;;19.13;100.00;101617.19;2064791;28;20183;-68
2022/06/18 02:40:51;;;;;;;10.43;3.50;;;;;;;18.79;100.00;101564.06;2064844;28;20178;-68
2022/06/18 02:42:19;;;;;;;9.30;3.87;;;;;;;19.03;100.00;101597.97;2064093;28;20418;-67
2022/06/18 02:43:21;;;;;;;8.43;3.60;;;;;;;19.12;100.00;101604.38;2064284;28;20194;-67
2022/06/18 02:44:22;;;;;;;8.13;4.00;;;;;;;19.21;100.00;101621.25;2064331;28;20426;-68
2022/06/18 02:45:25;;;;;;;7.43;3.30;;;;;;;19.27;100.00;101618.59;2062476;28;20493;-68
2022/06/18 02:46:27;;;;;;;6.63;3.40;;;;;;;19.08;100.00;101594.56;2064678;28;20748;-68
2022/06/18 02:47:27;;;;;;;9.30;3.20;;;;;;;19.00;100.00;101570.81;2064534;28;20418;-68
2022/06/18 02:48:31;;;;;;;8.23;3.27;;;;;;;19.30;100.00;101600.81;2064836;28;20518;-68
2022/06/18 02:49:35;;;;;;;7.90;4.00;;;;;;;19.06;100.00;101572.53;2064594;28;20264;-68
2022/06/18 02:50:40;;;;;;;8.83;4.07;;;;;;;19.19;100.00;101578.75;2065063;28;20432;-68
2022/06/18 02:51:41;;;;;;;7.93;4.00;;;;;;;19.45;100.00;101622.19;2064181;28;20445;-68
2022/06/18 02:52:55;;;;;;;10.87;3.87;;;;;;;19.46;100.00;101626.59;2064292;28;21009;-68
2022/06/18 02:53:55;;;;;;;7.60;3.33;;;;;;;19.15;100.00;101566.94;2064678;28;20420;-68
2022/06/18 02:55:01;;;;;;;5.77;3.47;;;;;;;19.53;100.00;101619.84;2064427;28;20425;-68
2022/06/18 02:56:04;;;;;;;6.77;3.30;;;;;;;19.58;100.00;101617.19;2064797;28;20195;-68
2022/06/18 02:57:13;;;;;;;7.90;3.43;;;;;;;19.57;100.00;101621.28;2064279;28;20819;-68
2022/06/18 02:58:26;;;;;;;8.30;3.60;;;;;;;19.59;100.00;101623.63;2064805;28;20409;-68
2022/06/18 02:59:27;;;;;;;5.63;3.07;;;;;;;19.37;100.00;101592.06;2064806;28;20421;-68
2022/06/18 03:00:28;;;;;;;5.80;3.10;;;;;;;19.56;100.00;101628.16;2064764;28;20444;-68
2022/06/18 03:01:29;;;;;;;6.17;3.10;;;;;;;19.46;100.00;101623.00;2063912;28;20196;-68
2022/06/18 03:02:29;;;;;;;5.70;3.70;;;;;;;19.29;100.00;101599.28;2064419;28;20265;-68
2022/06/18 03:03:38;;;;;;;6.67;3.20;;;;;;;19.34;100.00;101609.88;2064642;28;20190;-68
2022/06/18 03:04:39;;;;;;;5.13;3.30;;;;;;;19.51;100.00;101639.22;2064330;28;20166;-68
2022/06/18 03:05:40;;;;;;;6.17;3.17;;;;;;;19.50;100.00;101648.91;2064726;28;20425;-68
2022/06/18 03:06:41;;;;;;;5.50;3.10;;;;;;;19.51;100.00;101648.47;2064042;28;20300;-68
2022/06/18 03:07:42;;;;;;;4.50;3.00;;;;;;;19.59;100.00;101648.91;2063883;28;20445;-68
2022/06/18 03:08:46;;;;;;;5.47;3.17;;;;;;;19.62;100.00;101643.13;2064219;28;20186;-68
2022/06/18 03:12:25;;;;;;;7.83;2.97;;;;;;;19.66;100.00;101651.41;2064711;28;20502;-68
2022/06/18 03:13:26;;;;;;;7.43;3.30;;;;;;;19.66;100.00;101651.41;2064170;28;20423;-68
2022/06/18 03:14:27;;;;;;;5.30;3.40;;;;;;;19.71;100.00;101651.53;2064156;28;20339;-68
2022/06/18 03:15:30;;;;;;;5.27;3.30;;;;;;;19.74;100.00;101653.44;2064518;28;20436;-68
2022/06/18 03:16:31;;;;;;;7.40;3.40;;;;;;;19.80;100.00;101668.41;2064072;28;20677;-68
2022/06/18 03:17:32;;;;;;;8.20;4.00;;;;;;;19.42;100.00;101594.25;2064641;28;20944;-68
2022/06/18 03:18:33;;;;;;;10.50;3.53;;;;;;;19.21;100.00;101567.06;2064705;28;20801;-68
2022/06/18 03:19:43;;;;;;;7.23;3.20;;;;;;;19.83;100.00;101653.41;2064591;28;20185;-68
2022/06/18 03:20:52;;;;;;;4.73;3.20;;;;;;;19.84;100.00;101659.81;2064718;28;20169;-68
2022/06/18 03:21:57;;;;;;;7.30;3.30;;;;;;;19.43;100.00;101587.38;2056948;28;20429;-68
2022/06/18 03:22:57;;;;;;;8.30;3.47;;;;;;;19.90;100.00;101657.94;2056107;28;20948;-68
2022/06/18 03:23:58;;;;;;;7.63;3.50;;;;;;;19.93;100.00;101654.97;2056227;28;20800;-68
2022/06/18 03:24:58;;;;;;;6.03;3.20;;;;;;;19.92;100.00;101650.59;2056482;28;20184;-68
2022/06/18 03:25:59;;;;;;;6.57;3.10;;;;;;;19.99;100.00;101661.50;2056539;28;20176;-68
2022/06/18 03:26:59;;;;;;;6.77;3.27;;;;;;;19.94;100.00;101661.34;2056148;28;20174;-68
2022/06/18 03:28:00;;;;;;;7.00;3.50;;;;;;;19.94;100.00;101662.16;2056472;28;20244;-68
2022/06/18 03:29:01;;;;;;;5.70;3.30;;;;;;;19.44;100.00;101580.53;2056558;28;20190;-68
2022/06/18 03:30:04;;;;;;;4.47;3.23;;;;;;;19.97;100.00;101658.41;2056519;28;20670;-68
2022/06/18 03:31:05;;;;;;;7.43;3.27;;;;;;;20.05;100.00;101665.25;2058244;28;20421;-67
2022/06/18 03:32:06;;;;;;;9.10;3.23;;;;;;;19.59;100.00;101590.63;2064361;28;20436;-68
2022/06/18 03:33:08;;;;;;;7.50;3.40;;;;;;;20.14;100.00;101670.09;2063910;28;20244;-68
2022/06/18 03:34:09;;;;;;;6.23;3.20;;;;;;;20.17;100.00;101674.78;2064039;28;20418;-68
2022/06/18 03:35:09;;;;;;;8.13;3.20;;;;;;;20.18;100.00;101670.72;2064573;28;20425;-68
2022/06/18 03:36:11;;;;;;;4.97;3.10;;;;;;;19.51;100.00;101555.69;2064501;28;20195;-68
2022/06/18 03:37:12;;;;;;;5.93;3.53;;;;;;;19.36;100.00;101529.47;2063951;28;20235;-68
2022/06/18 03:38:14;;;;;;;6.27;3.40;;;;;;;20.26;100.00;101672.72;2064497;28;20515;-68
2022/06/18 03:39:15;;;;;;;7.03;3.13;;;;;;;20.12;100.00;101641.66;2064621;28;20587;-68
2022/06/18 03:40:15;;;;;;;7.87;3.30;;;;;;;20.32;100.00;101679.25;2064528;28;20436;-68
2022/06/18 03:41:18;;;;;;;6.37;3.40;;;;;;;20.31;100.00;101665.69;2063813;28;20517;-68
2022/06/18 03:42:18;;;;;;;8.07;3.60;;;;;;;20.42;100.00;101666.72;2064532;28;20659;-68
2022/06/18 03:43:21;;;;;;;6.47;3.20;;;;;;;20.50;100.00;101667.16;2063706;28;20806;-67
2022/06/18 03:44:23;;;;;;;7.87;3.30;;;;;;;20.52;100.00;101656.22;2063380;28;20264;-68
2022/06/18 03:45:24;;;;;;;9.80;3.13;;;;;;;20.65;100.00;101668.03;2064504;28;20521;-68
2022/06/18 03:46:24;;;;;;;9.73;3.40;;;;;;;20.70;100.00;101665.34;2064407;28;20433;-68
2022/06/18 03:47:25;;;;;;;8.47;3.40;;;;;;;20.73;100.00;101667.19;2063984;28;20663;-68
2022/06/18 03:48:30;;;;;;;9.40;3.50;;;;;;;20.76;100.00;101671.09;2064582;28;20186;-68
2022/06/18 03:49:33;;;;;;;7.43;3.70;;;;;;;20.71;100.00;101655.63;2064439;28;20187;-68
2022/06/18 03:50:34;;;;;;;11.50;4.10;;;;;;;20.84;100.00;101675.94;2064265;28;20433;-68
2022/06/18 03:51:34;;;;;;;8.70;3.90;;;;;;;20.28;100.00;101587.81;2063926;28;20432;-68
2022/06/18 03:52:35;;;;;;;9.27;3.73;;;;;;;20.52;100.00;101619.59;2063871;28;20233;-68
2022/06/18 03:53:36;;;;;;;7.73;3.43;;;;;;;20.54;100.00;101617.88;2064468;28;20181;-68
2022/06/18 03:54:36;;;;;;;10.40;3.77;;;;;;;21.00;100.00;101680.41;2064024;28;20233;-68
2022/06/18 03:55:38;;;;;;;8.73;3.30;;;;;;;20.91;100.00;101658.69;2064475;28;20223;-68
2022/06/18 03:56:38;;;;;;;7.73;3.67;;;;;;;20.98;100.00;101668.84;2064081;28;20185;-67
2022/06/18 03:57:39;;;;;;;11.57;3.40;;;;;;;21.07;100.00;101665.94;2064249;28;20443;-67
2022/06/18 03:58:40;;;;;;;6.73;3.30;;;;;;;21.13;100.00;101672.50;2064409;28;20210;-68
2022/06/18 03:59:41;;;;;;;7.47;3.33;;;;;;;21.15;100.00;101673.56;2064373;28;20189;-68
2022/06/18 04:00:42;;;;;;;5.93;3.30;;;;;;;21.18;100.00;101669.03;2064605;28;20421;-67
2022/06/18 04:01:42;;;;;;;7.63;3.53;;;;;;;21.16;100.00;101671.53;2063677;28;20189;-68
2022/06/18 04:02:43;;;;;;;6.70;3.43;;;;;;;21.18;100.00;101669.78;2064020;28;20189;-67
2022/06/18 04:03:44;;;;;;;7.77;3.40;;;;;;;21.17;100.00;101668.22;2064313;28;20179;-67
2022/06/18 04:04:44;;;;;;;6.53;3.20;;;;;;;21.06;100.00;101644.66;2063873;28;20178;-67
2022/06/18 04:05:45;;;;;;;8.33;3.30;;;;;;;21.22;100.00;101667.56;2064372;28;20190;-67
2022/06/18 04:06:45;;;;;;;7.13;3.27;;;;;;;21.30;100.00;101667.97;2062954;28;20491;-67
2022/06/18 04:07:46;;;;;;;9.60;3.90;;;;;;;21.32;100.00;101671.09;2063782;28;20461;-68
2022/06/18 04:08:46;;;;;;;4.90;3.33;;;;;;;21.38;100.00;101669.16;2064569;28;20671;-68
2022/06/18 04:09:49;;;;;;;5.07;2.90;;;;;;;21.47;100.00;101672.69;2064208;28;20220;-68
2022/06/18 04:10:50;;;;;;;6.30;3.73;;;;;;;21.47;100.00;101666.28;2064423;28;20178;-68
2022/06/18 04:11:50;;;;;;;10.63;3.30;;;;;;;21.61;100.00;101679.63;2063054;28;20437;-68
2022/06/18 04:12:51;;;;;;;8.93;3.27;;;;;;;21.67;100.00;101678.50;2063168;28;20233;-68
2022/06/18 04:13:51;;;;;;;6.63;3.13;;;;;;;21.15;100.00;101589.00;2064223;28;20264;-68
2022/06/18 04:14:52;;;;;;;6.97;3.77;;;;;;;21.47;100.00;101618.31;2064008;28;20243;-68
2022/06/18 04:15:53;;;;;;;7.30;4.10;;;;;;;21.94;100.00;101675.44;2064236;28;20179;-68
2022/06/18 04:16:53;;;;;;;9.03;5.83;;;;;;;22.03;100.00;101668.91;2063918;28;20187;-68
2022/06/18 04:17:54;;;;;;;15.43;8.97;;;;;;;22.11;100.00;101667.28;2064338;28;20186;-68
2022/06/18 04:18:55;;;;;;;12.00;7.07;;;;;;;21.10;100.00;101504.34;2064439;28;20191;-68
2022/06/18 04:19:55;;;;;;;10.17;6.80;;;;;;;22.16;100.00;101666.59;2064304;28;20186;-68
2022/06/18 04:20:56;;;;;;;9.97;5.63;;;;;;;22.22;100.00;101676.69;2063937;28;20194;-68
2022/06/18 04:21:56;;;;;;;6.40;4.33;;;;;;;22.31;100.00;101676.59;2063981;28;20218;-68
2022/06/18 04:22:57;;;;;;;6.03;3.37;;;;;;;22.39;100.00;101674.16;2063900;28;20183;-68
2022/06/18 04:23:58;;;;;;;5.83;2.97;;;;;;;22.47;100.00;101678.94;2064129;28;20187;-68
2022/06/18 04:24:58;;;;;;;8.27;3.20;;;;;;;22.53;100.00;101676.22;2064316;28;20771;-68
2022/06/18 04:25:59;;;;;;;6.90;2.90;;;;;;;22.35;100.00;101636.84;2064309;28;20193;-68
2022/06/18 04:26:59;;;;;;;8.47;3.17;;;;;;;22.62;100.00;101673.28;2063997;28;20175;-68
2022/06/18 04:28:00;;;;;;;7.53;2.97;;;;;;;22.65;100.00;101664.59;2064277;28;20273;-67
2022/06/18 04:29:00;;;;;;;4.87;2.97;;;;;;;22.67;100.00;101670.53;2064438;28;20182;-68
2022/06/18 04:30:01;;;;;;;9.63;3.30;;;;;;;22.77;100.00;101674.03;2064342;28;20256;-68
2022/06/18 04:31:02;;;;;;;4.60;2.80;;;;;;;22.65;100.00;101646.84;2063038;28;20225;-68
2022/06/18 04:32:04;;;;;;;6.60;3.20;;;;;;;22.85;100.00;101667.47;2063540;28;20186;-68
2022/06/18 04:33:05;;;;;;;7.93;3.33;;;;;;;22.75;100.00;101645.47;2063705;28;20194;-68
2022/06/18 04:34:06;;;;;;;5.87;3.20;;;;;;;22.94;100.00;101667.34;2063676;28;20179;-68
2022/06/18 04:35:09;;;;;;;4.87;2.80;;;;;;;22.51;100.00;101605.31;2064495;28;20512;-68
2022/06/18 04:36:30;;;;;;;6.90;3.00;;;;;;;23.07;100.00;101681.09;2064449;28;20178;-68
2022/06/18 04:37:30;;;;;;;6.13;3.33;;;;;;;23.13;100.00;101676.34;2064153;28;20280;-68
2022/06/18 04:38:31;;;;;;;5.10;3.10;;;;;;;23.17;100.00;101680.50;2064365;28;20183;-68
2022/06/18 04:39:31;;;;;;;7.60;2.90;;;;;;;23.26;100.00;101682.44;2064314;28;20198;-68
2022/06/18 04:40:34;;;;;;;5.50;2.80;;;;;;;23.33;100.00;101684.84;2060231;28;20781;-67
2022/06/18 04:41:34;;;;;;;5.57;2.90;;;;;;;23.36;100.00;101683.84;2055600;28;20201;-68
2022/06/18 04:42:35;;;;;;;6.57;3.10;;;;;;;23.36;100.00;101684.63;2055747;28;20181;-67
2022/06/18 04:43:35;;;;;;;8.00;3.00;;;;;;;23.37;100.00;101686.19;2056033;28;20183;-68
2022/06/18 04:44:36;;;;;;;5.23;3.27;;;;;;;23.37;100.00;101677.69;2055858;28;20784;-68
2022/06/18 04:45:37;;;;;;;5.27;2.87;;;;;;;23.48;100.00;101685.53;2060765;28;20190;-68
2022/06/18 04:46:37;;;;;;;4.73;3.13;;;;;;;23.54;100.00;101689.97;2063674;28;20205;-68
2022/06/18 04:47:40;;;;;;;5.30;2.87;;;;;;;23.50;100.00;101691.47;2064224;28;20265;-68
2022/06/18 04:48:40;;;;;;;6.17;2.90;;;;;;;23.41;100.00;101697.28;2064257;28;20566;-68
2022/06/18 04:49:41;;;;;;;4.93;3.03;;;;;;;23.40;100.00;101692.91;2064137;28;20840;-68
2022/06/18 04:50:42;;;;;;;4.70;3.10;;;;;;;23.45;100.00;101703.50;2064439;28;20702;-68
2022/06/18 04:51:42;;;;;;;10.37;3.40;;;;;;;23.51;100.00;101693.03;2063442;28;20209;-68
2022/06/18 04:52:43;;;;;;;4.83;3.10;;;;;;;23.59;100.00;101694.19;2063749;28;20203;-68
2022/06/18 04:53:43;;;;;;;5.80;3.10;;;;;;;23.63;100.00;101692.66;2064261;28;20550;-68
2022/06/18 04:54:44;;;;;;;5.33;3.03;;;;;;;23.56;100.00;101695.16;2063837;28;20175;-68
2022/06/18 04:55:45;;;;;;;7.37;3.33;;;;;;;23.49;100.00;101689.94;2064561;28;20187;-68
2022/06/18 04:56:45;;;;;;;4.33;3.00;;;;;;;23.43;100.00;101692.69;2064680;28;20488;-68
2022/06/18 04:57:46;;;;;;;8.03;3.40;;;;;;;23.42;100.00;101696.00;2073014;28;20186;-68